Lakewood, Washington
Current Conditions -  °F | °C
As of 5:58 PM on Saturday 25 Oct 2014 (Local Time) from KTCM Reporting Station
Overcast Overcast  
Wind Chill: 62°   Ceiling: 5500
Heat Index: 62°   Visibility: 10mi
Dew Point: 51°   Wind: 25mph
Humidity: 67%   Direction: 200°SSW
Pressure: 29.29"   Gusts: 35mph
Location:  47.17°N, 122.51°W
Report Text: KTCM 260058Z AUTO 20022G30KT 10SM FEW044 BKN055 BKN080 OVC100 17/11 A2929 RMK AO2 PK WND 17035/44 SLP922 T01660105 $
Loading
Personal Weather Stations






























Interactive Weather Map
Tropical Storm Tracking
New forecast layout! Learn more

10-Day Weather Forecast

Advertisements
Track Severe Weather on mobile